sensor_id;sensor_type;location;lat;lon;timestamp;P1;durP1;ratioP1;P2;durP2;ratioP2
76752;SDS011;65687;51.308;16.916;2023-08-08T00:00:09;2.90;;;1.90;;
76752;SDS011;65687;51.308;16.916;2023-08-08T00:05:30;5.40;;;2.00;;
76752;SDS011;65687;51.308;16.916;2023-08-08T00:10:31;5.20;;;2.20;;
76752;SDS011;65687;51.308;16.916;2023-08-08T00:15:32;4.10;;;2.10;;
76752;SDS011;65687;51.308;16.916;2023-08-08T00:20:33;4.00;;;2.10;;
76752;SDS011;65687;51.308;16.916;2023-08-08T00:25:35;5.40;;;2.20;;
76752;SDS011;65687;51.308;16.916;2023-08-08T00:30:36;4.80;;;2.20;;
76752;SDS011;65687;51.308;16.916;2023-08-08T00:35:37;3.60;;;1.90;;
76752;SDS011;65687;51.308;16.916;2023-08-08T00:40:38;4.20;;;2.00;;
76752;SDS011;65687;51.308;16.916;2023-08-08T00:45:40;4.30;;;2.10;;
76752;SDS011;65687;51.308;16.916;2023-08-08T00:50:44;4.50;;;2.10;;
76752;SDS011;65687;51.308;16.916;2023-08-08T00:55:45;5.80;;;2.40;;
76752;SDS011;65687;51.308;16.916;2023-08-08T01:00:46;3.90;;;1.70;;
76752;SDS011;65687;51.308;16.916;2023-08-08T01:05:48;4.30;;;2.10;;
76752;SDS011;65687;51.308;16.916;2023-08-08T01:10:56;3.50;;;2.30;;
76752;SDS011;65687;51.308;16.916;2023-08-08T01:15:57;3.40;;;2.10;;
76752;SDS011;65687;51.308;16.916;2023-08-08T01:21:00;3.80;;;1.90;;
76752;SDS011;65687;51.308;16.916;2023-08-08T01:26:03;5.60;;;2.10;;
76752;SDS011;65687;51.308;16.916;2023-08-08T01:31:04;4.80;;;2.10;;
76752;SDS011;65687;51.308;16.916;2023-08-08T01:36:07;3.30;;;2.10;;
76752;SDS011;65687;51.308;16.916;2023-08-08T01:41:14;4.10;;;2.00;;
76752;SDS011;65687;51.308;16.916;2023-08-08T01:46:16;6.60;;;2.30;;
76752;SDS011;65687;51.308;16.916;2023-08-08T01:51:17;3.70;;;1.90;;
76752;SDS011;65687;51.308;16.916;2023-08-08T01:56:18;3.60;;;1.80;;
76752;SDS011;65687;51.308;16.916;2023-08-08T02:01:19;6.50;;;1.90;;
76752;SDS011;65687;51.308;16.916;2023-08-08T02:06:20;3.20;;;2.00;;
76752;SDS011;65687;51.308;16.916;2023-08-08T02:11:21;6.70;;;1.90;;
76752;SDS011;65687;51.308;16.916;2023-08-08T02:16:22;5.00;;;2.20;;
76752;SDS011;65687;51.308;16.916;2023-08-08T02:21:23;4.50;;;1.70;;
76752;SDS011;65687;51.308;16.916;2023-08-08T02:26:24;5.30;;;2.10;;
76752;SDS011;65687;51.308;16.916;2023-08-08T02:31:25;3.90;;;2.10;;
76752;SDS011;65687;51.308;16.916;2023-08-08T02:36:26;3.20;;;2.10;;
76752;SDS011;65687;51.308;16.916;2023-08-08T02:41:27;3.40;;;2.20;;
76752;SDS011;65687;51.308;16.916;2023-08-08T02:46:28;3.70;;;2.30;;
76752;SDS011;65687;51.308;16.916;2023-08-08T02:51:29;5.30;;;1.80;;
76752;SDS011;65687;51.308;16.916;2023-08-08T02:56:30;3.60;;;1.90;;
76752;SDS011;65687;51.308;16.916;2023-08-08T03:01:31;4.30;;;2.00;;
76752;SDS011;65687;51.308;16.916;2023-08-08T03:06:32;4.70;;;2.10;;
76752;SDS011;65687;51.308;16.916;2023-08-08T03:11:33;5.00;;;2.00;;
76752;SDS011;65687;51.308;16.916;2023-08-08T03:16:33;4.80;;;1.90;;
76752;SDS011;65687;51.308;16.916;2023-08-08T03:21:34;3.80;;;2.00;;
76752;SDS011;65687;51.308;16.916;2023-08-08T03:26:35;3.50;;;1.90;;
76752;SDS011;65687;51.308;16.916;2023-08-08T03:31:36;3.50;;;2.20;;
76752;SDS011;65687;51.308;16.916;2023-08-08T03:36:37;4.50;;;1.80;;
76752;SDS011;65687;51.308;16.916;2023-08-08T03:41:38;4.80;;;2.20;;
76752;SDS011;65687;51.308;16.916;2023-08-08T03:46:39;3.90;;;2.10;;
76752;SDS011;65687;51.308;16.916;2023-08-08T03:51:40;3.50;;;1.80;;
76752;SDS011;65687;51.308;16.916;2023-08-08T03:56:40;4.80;;;2.30;;
76752;SDS011;65687;51.308;16.916;2023-08-08T04:01:41;4.10;;;2.00;;
76752;SDS011;65687;51.308;16.916;2023-08-08T04:06:42;3.60;;;1.90;;
76752;SDS011;65687;51.308;16.916;2023-08-08T04:11:43;4.80;;;1.90;;
76752;SDS011;65687;51.308;16.916;2023-08-08T04:16:44;4.80;;;2.30;;
76752;SDS011;65687;51.308;16.916;2023-08-08T04:21:45;3.50;;;2.30;;
76752;SDS011;65687;51.308;16.916;2023-08-08T04:26:45;5.90;;;2.10;;
76752;SDS011;65687;51.308;16.916;2023-08-08T04:31:46;4.50;;;2.50;;
76752;SDS011;65687;51.308;16.916;2023-08-08T04:36:47;3.30;;;2.20;;
76752;SDS011;65687;51.308;16.916;2023-08-08T04:41:48;5.10;;;1.90;;
76752;SDS011;65687;51.308;16.916;2023-08-08T04:46:49;2.90;;;1.90;;
76752;SDS011;65687;51.308;16.916;2023-08-08T04:51:49;5.10;;;1.80;;
76752;SDS011;65687;51.308;16.916;2023-08-08T04:56:50;4.70;;;2.30;;
76752;SDS011;65687;51.308;16.916;2023-08-08T05:01:51;2.90;;;1.90;;
76752;SDS011;65687;51.308;16.916;2023-08-08T05:06:52;3.80;;;2.10;;
76752;SDS011;65687;51.308;16.916;2023-08-08T05:11:53;3.30;;;2.10;;
76752;SDS011;65687;51.308;16.916;2023-08-08T05:16:54;4.40;;;2.10;;
76752;SDS011;65687;51.308;16.916;2023-08-08T05:21:55;4.80;;;2.10;;
76752;SDS011;65687;51.308;16.916;2023-08-08T05:26:55;4.00;;;2.00;;
76752;SDS011;65687;51.308;16.916;2023-08-08T05:31:56;3.20;;;2.00;;
76752;SDS011;65687;51.308;16.916;2023-08-08T05:36:57;3.00;;;1.90;;
76752;SDS011;65687;51.308;16.916;2023-08-08T05:41:58;2.90;;;1.80;;
76752;SDS011;65687;51.308;16.916;2023-08-08T05:46:59;5.20;;;2.00;;
76752;SDS011;65687;51.308;16.916;2023-08-08T05:52:00;3.40;;;2.00;;
76752;SDS011;65687;51.308;16.916;2023-08-08T05:57:02;4.70;;;2.30;;
76752;SDS011;65687;51.308;16.916;2023-08-08T06:02:03;3.90;;;1.90;;
76752;SDS011;65687;51.308;16.916;2023-08-08T06:07:04;4.80;;;2.00;;
76752;SDS011;65687;51.308;16.916;2023-08-08T06:12:05;3.20;;;1.90;;
76752;SDS011;65687;51.308;16.916;2023-08-08T06:17:07;3.10;;;2.00;;
76752;SDS011;65687;51.308;16.916;2023-08-08T06:22:08;3.70;;;2.20;;
76752;SDS011;65687;51.308;16.916;2023-08-08T06:27:09;3.10;;;2.00;;
76752;SDS011;65687;51.308;16.916;2023-08-08T06:32:09;2.90;;;2.10;;
76752;SDS011;65687;51.308;16.916;2023-08-08T06:37:10;4.90;;;2.00;;
76752;SDS011;65687;51.308;16.916;2023-08-08T06:42:12;2.50;;;1.50;;
76752;SDS011;65687;51.308;16.916;2023-08-08T06:47:12;3.00;;;1.60;;
76752;SDS011;65687;51.308;16.916;2023-08-08T06:52:13;3.60;;;2.00;;
76752;SDS011;65687;51.308;16.916;2023-08-08T06:57:14;2.90;;;1.60;;
76752;SDS011;65687;51.308;16.916;2023-08-08T07:02:15;3.40;;;1.70;;
76752;SDS011;65687;51.308;16.916;2023-08-08T07:07:17;2.30;;;1.60;;
76752;SDS011;65687;51.308;16.916;2023-08-08T07:12:18;4.00;;;1.50;;
76752;SDS011;65687;51.308;16.916;2023-08-08T07:17:19;4.40;;;1.70;;
76752;SDS011;65687;51.308;16.916;2023-08-08T07:22:19;3.00;;;1.60;;
76752;SDS011;65687;51.308;16.916;2023-08-08T07:27:21;2.40;;;1.50;;
76752;SDS011;65687;51.308;16.916;2023-08-08T07:32:22;2.70;;;1.50;;
76752;SDS011;65687;51.308;16.916;2023-08-08T07:37:23;3.50;;;1.70;;
76752;SDS011;65687;51.308;16.916;2023-08-08T07:42:24;3.20;;;1.70;;
76752;SDS011;65687;51.308;16.916;2023-08-08T07:47:25;1.80;;;1.30;;
76752;SDS011;65687;51.308;16.916;2023-08-08T07:52:26;2.00;;;1.30;;
76752;SDS011;65687;51.308;16.916;2023-08-08T07:57:27;2.90;;;1.40;;
76752;SDS011;65687;51.308;16.916;2023-08-08T08:02:27;3.00;;;1.50;;
76752;SDS011;65687;51.308;16.916;2023-08-08T08:07:28;3.30;;;1.60;;
76752;SDS011;65687;51.308;16.916;2023-08-08T08:12:30;2.30;;;1.30;;
76752;SDS011;65687;51.308;16.916;2023-08-08T08:22:32;2.10;;;1.50;;
76752;SDS011;65687;51.308;16.916;2023-08-08T08:27:34;3.60;;;1.50;;
76752;SDS011;65687;51.308;16.916;2023-08-08T08:32:36;2.10;;;1.50;;
76752;SDS011;65687;51.308;16.916;2023-08-08T08:37:39;2.40;;;1.50;;
76752;SDS011;65687;51.308;16.916;2023-08-08T08:42:40;2.10;;;1.50;;
76752;SDS011;65687;51.308;16.916;2023-08-08T08:47:43;3.20;;;1.40;;
76752;SDS011;65687;51.308;16.916;2023-08-08T08:52:47;2.00;;;1.40;;
76752;SDS011;65687;51.308;16.916;2023-08-08T08:57:49;2.40;;;1.40;;
76752;SDS011;65687;51.308;16.916;2023-08-08T09:02:51;1.50;;;1.20;;
76752;SDS011;65687;51.308;16.916;2023-08-08T09:07:55;3.40;;;1.50;;
76752;SDS011;65687;51.308;16.916;2023-08-08T09:12:56;3.20;;;1.50;;
76752;SDS011;65687;51.308;16.916;2023-08-08T09:17:58;2.20;;;1.30;;
76752;SDS011;65687;51.308;16.916;2023-08-08T09:22:59;1.80;;;1.40;;
76752;SDS011;65687;51.308;16.916;2023-08-08T09:27:59;1.50;;;1.30;;
76752;SDS011;65687;51.308;16.916;2023-08-08T09:33:01;2.80;;;1.70;;
76752;SDS011;65687;51.308;16.916;2023-08-08T09:38:02;2.00;;;1.50;;
76752;SDS011;65687;51.308;16.916;2023-08-08T09:43:04;2.20;;;1.40;;
76752;SDS011;65687;51.308;16.916;2023-08-08T09:48:07;2.30;;;1.30;;
76752;SDS011;65687;51.308;16.916;2023-08-08T09:53:08;5.00;;;1.70;;
76752;SDS011;65687;51.308;16.916;2023-08-08T09:58:10;1.80;;;1.30;;
76752;SDS011;65687;51.308;16.916;2023-08-08T10:03:13;2.70;;;1.40;;
76752;SDS011;65687;51.308;16.916;2023-08-08T10:08:14;1.80;;;1.30;;
76752;SDS011;65687;51.308;16.916;2023-08-08T10:18:24;3.30;;;1.50;;
76752;SDS011;65687;51.308;16.916;2023-08-08T10:23:25;2.20;;;1.60;;
76752;SDS011;65687;51.308;16.916;2023-08-08T10:28:26;2.00;;;1.40;;
76752;SDS011;65687;51.308;16.916;2023-08-08T10:33:28;3.00;;;1.50;;
76752;SDS011;65687;51.308;16.916;2023-08-08T10:38:41;2.30;;;1.50;;
76752;SDS011;65687;51.308;16.916;2023-08-08T10:43:51;2.40;;;1.70;;
76752;SDS011;65687;51.308;16.916;2023-08-08T10:48:54;2.10;;;1.40;;
76752;SDS011;65687;51.308;16.916;2023-08-08T10:54:02;2.30;;;1.50;;
76752;SDS011;65687;51.308;16.916;2023-08-08T10:59:14;2.30;;;1.50;;
76752;SDS011;65687;51.308;16.916;2023-08-08T11:04:20;2.10;;;1.60;;
76752;SDS011;65687;51.308;16.916;2023-08-08T11:09:23;2.10;;;1.40;;
76752;SDS011;65687;51.308;16.916;2023-08-08T11:14:24;2.60;;;1.40;;
76752;SDS011;65687;51.308;16.916;2023-08-08T11:19:25;2.00;;;1.50;;
76752;SDS011;65687;51.308;16.916;2023-08-08T11:24:26;2.60;;;1.60;;
76752;SDS011;65687;51.308;16.916;2023-08-08T11:29:27;2.50;;;1.50;;
76752;SDS011;65687;51.308;16.916;2023-08-08T11:34:31;3.10;;;1.60;;
76752;SDS011;65687;51.308;16.916;2023-08-08T11:39:33;3.80;;;1.60;;
76752;SDS011;65687;51.308;16.916;2023-08-08T11:44:35;2.60;;;1.30;;
76752;SDS011;65687;51.308;16.916;2023-08-08T11:49:39;2.40;;;1.60;;
76752;SDS011;65687;51.308;16.916;2023-08-08T11:54:42;3.20;;;1.60;;
76752;SDS011;65687;51.308;16.916;2023-08-08T11:59:42;3.00;;;1.90;;
76752;SDS011;65687;51.308;16.916;2023-08-08T12:04:47;2.60;;;1.60;;
76752;SDS011;65687;51.308;16.916;2023-08-08T12:09:48;3.30;;;1.60;;
76752;SDS011;65687;51.308;16.916;2023-08-08T12:14:49;2.60;;;1.50;;
76752;SDS011;65687;51.308;16.916;2023-08-08T12:19:49;2.30;;;1.60;;
76752;SDS011;65687;51.308;16.916;2023-08-08T12:24:51;2.30;;;1.50;;
76752;SDS011;65687;51.308;16.916;2023-08-08T12:29:52;2.20;;;1.60;;
76752;SDS011;65687;51.308;16.916;2023-08-08T12:34:53;4.10;;;1.80;;
76752;SDS011;65687;51.308;16.916;2023-08-08T12:39:54;3.20;;;1.50;;
76752;SDS011;65687;51.308;16.916;2023-08-08T12:44:55;2.50;;;1.50;;
76752;SDS011;65687;51.308;16.916;2023-08-08T12:49:56;2.40;;;1.70;;
76752;SDS011;65687;51.308;16.916;2023-08-08T12:54:57;4.50;;;1.70;;
76752;SDS011;65687;51.308;16.916;2023-08-08T12:59:57;2.90;;;1.70;;
76752;SDS011;65687;51.308;16.916;2023-08-08T13:04:58;3.60;;;1.90;;
76752;SDS011;65687;51.308;16.916;2023-08-08T13:09:59;2.70;;;1.50;;
76752;SDS011;65687;51.308;16.916;2023-08-08T13:15:00;2.50;;;1.80;;
76752;SDS011;65687;51.308;16.916;2023-08-08T13:20:01;4.10;;;2.00;;
76752;SDS011;65687;51.308;16.916;2023-08-08T13:25:03;2.30;;;1.70;;
76752;SDS011;65687;51.308;16.916;2023-08-08T13:30:05;4.20;;;1.70;;
76752;SDS011;65687;51.308;16.916;2023-08-08T13:40:08;2.10;;;1.60;;
76752;SDS011;65687;51.308;16.916;2023-08-08T13:45:09;2.50;;;1.60;;
76752;SDS011;65687;51.308;16.916;2023-08-08T13:50:10;2.50;;;1.40;;
76752;SDS011;65687;51.308;16.916;2023-08-08T13:55:13;3.90;;;1.60;;
76752;SDS011;65687;51.308;16.916;2023-08-08T14:00:14;3.00;;;1.70;;
76752;SDS011;65687;51.308;16.916;2023-08-08T14:05:15;3.00;;;1.60;;
76752;SDS011;65687;51.308;16.916;2023-08-08T14:10:16;2.60;;;1.80;;
76752;SDS011;65687;51.308;16.916;2023-08-08T14:15:17;4.50;;;1.70;;
76752;SDS011;65687;51.308;16.916;2023-08-08T14:20:18;3.00;;;1.40;;
76752;SDS011;65687;51.308;16.916;2023-08-08T14:25:19;2.40;;;1.60;;
76752;SDS011;65687;51.308;16.916;2023-08-08T14:30:21;2.90;;;1.50;;
76752;SDS011;65687;51.308;16.916;2023-08-08T14:35:22;2.80;;;1.60;;
76752;SDS011;65687;51.308;16.916;2023-08-08T14:40:22;2.30;;;1.50;;
76752;SDS011;65687;51.308;16.916;2023-08-08T14:45:23;2.50;;;1.80;;
76752;SDS011;65687;51.308;16.916;2023-08-08T14:50:24;2.70;;;1.60;;
76752;SDS011;65687;51.308;16.916;2023-08-08T14:55:25;2.30;;;1.50;;
76752;SDS011;65687;51.308;16.916;2023-08-08T15:00:26;2.50;;;1.70;;
76752;SDS011;65687;51.308;16.916;2023-08-08T15:05:27;2.80;;;1.50;;
76752;SDS011;65687;51.308;16.916;2023-08-08T15:10:28;2.40;;;1.70;;
76752;SDS011;65687;51.308;16.916;2023-08-08T15:15:29;3.70;;;1.60;;
76752;SDS011;65687;51.308;16.916;2023-08-08T15:20:30;3.20;;;1.80;;
76752;SDS011;65687;51.308;16.916;2023-08-08T15:25:31;2.80;;;1.70;;
76752;SDS011;65687;51.308;16.916;2023-08-08T15:30:32;3.80;;;2.10;;
76752;SDS011;65687;51.308;16.916;2023-08-08T15:35:33;2.70;;;1.80;;
76752;SDS011;65687;51.308;16.916;2023-08-08T15:40:34;2.50;;;1.80;;
76752;SDS011;65687;51.308;16.916;2023-08-08T15:45:35;2.30;;;1.80;;
76752;SDS011;65687;51.308;16.916;2023-08-08T15:50:36;3.10;;;1.70;;
76752;SDS011;65687;51.308;16.916;2023-08-08T15:55:37;2.30;;;1.80;;
76752;SDS011;65687;51.308;16.916;2023-08-08T16:00:38;2.20;;;1.60;;
76752;SDS011;65687;51.308;16.916;2023-08-08T16:05:39;2.40;;;1.70;;
76752;SDS011;65687;51.308;16.916;2023-08-08T16:10:40;2.40;;;1.70;;
76752;SDS011;65687;51.308;16.916;2023-08-08T16:15:42;2.60;;;2.00;;
76752;SDS011;65687;51.308;16.916;2023-08-08T16:20:42;2.60;;;1.90;;
76752;SDS011;65687;51.308;16.916;2023-08-08T16:25:43;2.80;;;1.80;;
76752;SDS011;65687;51.308;16.916;2023-08-08T16:30:44;2.30;;;1.80;;
76752;SDS011;65687;51.308;16.916;2023-08-08T16:35:45;2.80;;;1.80;;
76752;SDS011;65687;51.308;16.916;2023-08-08T16:40:46;2.80;;;2.00;;
76752;SDS011;65687;51.308;16.916;2023-08-08T16:45:47;3.40;;;2.10;;
76752;SDS011;65687;51.308;16.916;2023-08-08T16:50:48;3.60;;;2.30;;
76752;SDS011;65687;51.308;16.916;2023-08-08T16:55:50;5.20;;;2.40;;
76752;SDS011;65687;51.308;16.916;2023-08-08T17:00:51;4.90;;;2.20;;
76752;SDS011;65687;51.308;16.916;2023-08-08T17:05:54;4.50;;;2.20;;
76752;SDS011;65687;51.308;16.916;2023-08-08T17:10:55;3.10;;;2.50;;
76752;SDS011;65687;51.308;16.916;2023-08-08T17:15:56;3.30;;;2.30;;
76752;SDS011;65687;51.308;16.916;2023-08-08T17:20:56;4.20;;;2.00;;
76752;SDS011;65687;51.308;16.916;2023-08-08T17:25:58;3.00;;;1.90;;
76752;SDS011;65687;51.308;16.916;2023-08-08T17:30:59;3.80;;;2.00;;
76752;SDS011;65687;51.308;16.916;2023-08-08T17:35:59;2.50;;;2.00;;
76752;SDS011;65687;51.308;16.916;2023-08-08T17:41:00;3.20;;;2.00;;
76752;SDS011;65687;51.308;16.916;2023-08-08T17:46:01;3.30;;;2.10;;
76752;SDS011;65687;51.308;16.916;2023-08-08T17:51:02;3.00;;;2.20;;
76752;SDS011;65687;51.308;16.916;2023-08-08T17:56:03;3.40;;;2.00;;
76752;SDS011;65687;51.308;16.916;2023-08-08T18:01:05;2.80;;;2.10;;
76752;SDS011;65687;51.308;16.916;2023-08-08T18:06:05;3.40;;;2.30;;
76752;SDS011;65687;51.308;16.916;2023-08-08T18:11:08;2.90;;;2.00;;
76752;SDS011;65687;51.308;16.916;2023-08-08T18:16:10;3.70;;;2.50;;
76752;SDS011;65687;51.308;16.916;2023-08-08T18:21:11;2.70;;;2.30;;
76752;SDS011;65687;51.308;16.916;2023-08-08T18:26:12;4.50;;;2.20;;
76752;SDS011;65687;51.308;16.916;2023-08-08T18:31:17;3.50;;;2.70;;
76752;SDS011;65687;51.308;16.916;2023-08-08T18:36:19;4.20;;;2.20;;
76752;SDS011;65687;51.308;16.916;2023-08-08T18:41:19;2.80;;;1.80;;
76752;SDS011;65687;51.308;16.916;2023-08-08T18:46:21;3.30;;;1.90;;
76752;SDS011;65687;51.308;16.916;2023-08-08T18:51:22;4.10;;;2.40;;
76752;SDS011;65687;51.308;16.916;2023-08-08T18:56:23;4.90;;;2.20;;
76752;SDS011;65687;51.308;16.916;2023-08-08T19:01:24;4.30;;;2.00;;
76752;SDS011;65687;51.308;16.916;2023-08-08T19:06:25;3.50;;;2.30;;
76752;SDS011;65687;51.308;16.916;2023-08-08T19:11:26;3.60;;;2.40;;
76752;SDS011;65687;51.308;16.916;2023-08-08T19:16:27;3.10;;;2.30;;
76752;SDS011;65687;51.308;16.916;2023-08-08T19:21:29;3.60;;;2.30;;
76752;SDS011;65687;51.308;16.916;2023-08-08T19:26:30;2.90;;;2.00;;
76752;SDS011;65687;51.308;16.916;2023-08-08T19:31:32;3.80;;;2.20;;
76752;SDS011;65687;51.308;16.916;2023-08-08T19:36:32;2.70;;;2.10;;
76752;SDS011;65687;51.308;16.916;2023-08-08T19:41:34;2.80;;;2.10;;
76752;SDS011;65687;51.308;16.916;2023-08-08T19:46:35;2.80;;;2.00;;
76752;SDS011;65687;51.308;16.916;2023-08-08T19:51:36;3.10;;;2.10;;
76752;SDS011;65687;51.308;16.916;2023-08-08T19:56:37;2.60;;;2.10;;
76752;SDS011;65687;51.308;16.916;2023-08-08T20:01:37;3.30;;;2.30;;
76752;SDS011;65687;51.308;16.916;2023-08-08T20:06:39;4.80;;;2.50;;
76752;SDS011;65687;51.308;16.916;2023-08-08T20:11:39;3.90;;;2.90;;
76752;SDS011;65687;51.308;16.916;2023-08-08T20:16:42;3.70;;;2.50;;
76752;SDS011;65687;51.308;16.916;2023-08-08T20:21:42;4.00;;;2.40;;
76752;SDS011;65687;51.308;16.916;2023-08-08T20:26:43;3.50;;;2.60;;
76752;SDS011;65687;51.308;16.916;2023-08-08T20:31:44;4.30;;;2.40;;
76752;SDS011;65687;51.308;16.916;2023-08-08T20:36:45;3.50;;;2.50;;
76752;SDS011;65687;51.308;16.916;2023-08-08T20:41:46;3.80;;;2.60;;
76752;SDS011;65687;51.308;16.916;2023-08-08T20:46:47;6.00;;;2.90;;
76752;SDS011;65687;51.308;16.916;2023-08-08T20:51:48;2.80;;;2.40;;
76752;SDS011;65687;51.308;16.916;2023-08-08T20:56:55;4.80;;;3.00;;
76752;SDS011;65687;51.308;16.916;2023-08-08T21:01:58;3.60;;;2.60;;
76752;SDS011;65687;51.308;16.916;2023-08-08T21:06:58;3.40;;;2.50;;
76752;SDS011;65687;51.308;16.916;2023-08-08T21:11:59;3.60;;;2.60;;
76752;SDS011;65687;51.308;16.916;2023-08-08T21:17:00;3.50;;;2.60;;
76752;SDS011;65687;51.308;16.916;2023-08-08T21:22:01;4.80;;;3.50;;
76752;SDS011;65687;51.308;16.916;2023-08-08T21:27:02;4.10;;;2.70;;
76752;SDS011;65687;51.308;16.916;2023-08-08T21:32:04;3.90;;;2.80;;
76752;SDS011;65687;51.308;16.916;2023-08-08T21:37:04;3.30;;;2.40;;
76752;SDS011;65687;51.308;16.916;2023-08-08T21:42:06;5.10;;;2.90;;
76752;SDS011;65687;51.308;16.916;2023-08-08T21:47:07;4.70;;;3.30;;
76752;SDS011;65687;51.308;16.916;2023-08-08T21:52:07;3.50;;;2.80;;
76752;SDS011;65687;51.308;16.916;2023-08-08T21:57:09;5.40;;;2.40;;
76752;SDS011;65687;51.308;16.916;2023-08-08T22:02:10;3.40;;;2.40;;
76752;SDS011;65687;51.308;16.916;2023-08-08T22:07:10;3.60;;;2.20;;
76752;SDS011;65687;51.308;16.916;2023-08-08T22:12:11;3.90;;;2.60;;
76752;SDS011;65687;51.308;16.916;2023-08-08T22:17:12;3.40;;;2.60;;
76752;SDS011;65687;51.308;16.916;2023-08-08T22:22:13;4.00;;;2.70;;
76752;SDS011;65687;51.308;16.916;2023-08-08T22:27:14;3.10;;;2.30;;
76752;SDS011;65687;51.308;16.916;2023-08-08T22:32:15;5.30;;;2.60;;
76752;SDS011;65687;51.308;16.916;2023-08-08T22:37:16;3.40;;;2.60;;
76752;SDS011;65687;51.308;16.916;2023-08-08T22:42:17;3.10;;;2.30;;
76752;SDS011;65687;51.308;16.916;2023-08-08T22:47:18;4.10;;;2.50;;
76752;SDS011;65687;51.308;16.916;2023-08-08T22:52:19;4.60;;;2.90;;
76752;SDS011;65687;51.308;16.916;2023-08-08T22:57:20;4.10;;;2.80;;
76752;SDS011;65687;51.308;16.916;2023-08-08T23:02:21;4.70;;;2.40;;
76752;SDS011;65687;51.308;16.916;2023-08-08T23:07:22;4.60;;;2.40;;
76752;SDS011;65687;51.308;16.916;2023-08-08T23:12:23;3.90;;;2.40;;
76752;SDS011;65687;51.308;16.916;2023-08-08T23:17:24;4.10;;;2.50;;
76752;SDS011;65687;51.308;16.916;2023-08-08T23:22:25;3.40;;;2.70;;
76752;SDS011;65687;51.308;16.916;2023-08-08T23:27:26;2.90;;;2.40;;
76752;SDS011;65687;51.308;16.916;2023-08-08T23:32:26;3.10;;;2.60;;
76752;SDS011;65687;51.308;16.916;2023-08-08T23:37:27;4.50;;;2.60;;
76752;SDS011;65687;51.308;16.916;2023-08-08T23:42:28;5.50;;;2.90;;
76752;SDS011;65687;51.308;16.916;2023-08-08T23:47:29;5.00;;;3.10;;
76752;SDS011;65687;51.308;16.916;2023-08-08T23:52:30;5.30;;;3.10;;
76752;SDS011;65687;51.308;16.916;2023-08-08T23:57:31;3.60;;;2.90;;
